createdAt,value
2023-03-27T00:00:12.059Z,2.00
2023-03-27T00:01:12.129Z,1.90
2023-03-27T00:02:12.115Z,2.30
2023-03-27T00:03:12.104Z,2.20
2023-03-27T00:04:12.034Z,1.70
2023-03-27T00:05:12.978Z,1.90
2023-03-27T00:06:12.047Z,1.70
2023-03-27T00:07:12.005Z,2.60
2023-03-27T00:08:12.051Z,1.70
2023-03-27T00:09:11.995Z,1.50
2023-03-27T00:10:11.939Z,1.80
2023-03-27T00:11:11.933Z,1.90
2023-03-27T00:12:11.964Z,2.20
2023-03-27T00:13:12.563Z,1.60
2023-03-27T00:14:11.889Z,1.70
2023-03-27T00:15:11.871Z,2.30
2023-03-27T00:16:11.919Z,2.20
2023-03-27T00:17:11.874Z,1.70
2023-03-27T00:18:11.899Z,1.90
2023-03-27T00:19:11.826Z,2.00
2023-03-27T00:20:12.610Z,2.40
2023-03-27T00:21:11.825Z,2.10
2023-03-27T00:22:11.848Z,2.00
2023-03-27T00:23:11.822Z,2.40
2023-03-27T00:24:11.798Z,1.70
2023-03-27T00:25:11.787Z,2.10
2023-03-27T00:26:11.925Z,2.00
2023-03-27T00:27:11.780Z,2.00
2023-03-27T00:28:11.782Z,2.10
2023-03-27T00:29:11.710Z,1.60
2023-03-27T00:30:11.757Z,1.90
2023-03-27T00:31:11.830Z,1.80
2023-03-27T00:32:11.713Z,1.70
2023-03-27T00:33:11.733Z,1.80
2023-03-27T00:34:11.790Z,1.60
2023-03-27T00:35:11.705Z,1.90
2023-03-27T00:36:11.684Z,2.40
2023-03-27T00:37:11.723Z,1.80
2023-03-27T00:38:11.650Z,2.00
2023-03-27T00:39:11.626Z,2.10
2023-03-27T00:40:11.618Z,1.70
2023-03-27T00:41:11.682Z,1.80
2023-03-27T00:42:11.617Z,2.00
2023-03-27T00:43:11.646Z,1.50
2023-03-27T00:44:11.589Z,2.40
2023-03-27T00:45:11.610Z,2.10
2023-03-27T00:46:11.658Z,2.50
2023-03-27T00:47:11.587Z,1.70
2023-03-27T00:48:11.513Z,1.80
2023-03-27T00:49:11.537Z,2.10
2023-03-27T00:50:11.510Z,1.90
2023-03-27T00:51:11.537Z,1.70
2023-03-27T00:52:11.530Z,1.50
2023-03-27T00:53:11.510Z,2.70
2023-03-27T00:54:11.480Z,1.50
2023-03-27T00:55:11.449Z,1.90
2023-03-27T00:56:11.514Z,1.70
2023-03-27T00:57:12.037Z,1.80
2023-03-27T00:58:11.421Z,2.60
2023-03-27T00:59:11.457Z,2.20
2023-03-27T01:00:11.419Z,2.10
2023-03-27T01:01:11.476Z,1.80
2023-03-27T01:02:11.450Z,2.10
2023-03-27T01:03:11.521Z,1.90
2023-03-27T01:04:11.406Z,2.10
2023-03-27T01:05:11.342Z,1.80
2023-03-27T01:06:11.432Z,1.90
2023-03-27T01:07:11.371Z,1.40
2023-03-27T01:08:11.336Z,2.00
2023-03-27T01:09:11.351Z,1.80
2023-03-27T01:10:12.304Z,1.90
2023-03-27T01:11:11.349Z,2.10
2023-03-27T01:12:11.346Z,1.90
2023-03-27T01:13:11.266Z,1.50
2023-03-27T01:14:11.258Z,1.40
2023-03-27T01:15:11.267Z,1.50
2023-03-27T01:16:11.299Z,2.10
2023-03-27T01:17:11.280Z,2.00
2023-03-27T01:18:11.301Z,1.60
2023-03-27T01:19:11.253Z,2.20
2023-03-27T01:20:11.214Z,2.00
2023-03-27T01:21:11.217Z,1.80
2023-03-27T01:22:11.274Z,2.20
2023-03-27T01:23:11.202Z,1.90
2023-03-27T01:24:11.170Z,2.40
2023-03-27T01:25:11.192Z,2.20
2023-03-27T01:26:11.209Z,2.20
2023-03-27T01:27:11.222Z,1.50
2023-03-27T01:28:11.183Z,1.70
2023-03-27T01:29:11.159Z,2.00
2023-03-27T01:30:11.183Z,1.70
2023-03-27T01:31:11.231Z,1.70
2023-03-27T01:32:11.117Z,1.50
2023-03-27T01:33:11.142Z,1.80
2023-03-27T01:34:11.115Z,2.30
2023-03-27T01:35:11.094Z,1.70
2023-03-27T01:36:11.100Z,2.30
2023-03-27T01:37:11.108Z,2.00
2023-03-27T01:38:11.034Z,1.80
2023-03-27T01:39:11.062Z,1.80
2023-03-27T01:40:11.060Z,1.90
2023-03-27T01:41:11.043Z,1.80
2023-03-27T01:42:11.026Z,2.10
2023-03-27T01:43:11.118Z,1.60
2023-03-27T01:44:11.013Z,1.90
2023-03-27T01:45:10.985Z,2.10
2023-03-27T01:46:11.032Z,1.70
2023-03-27T01:47:10.991Z,2.20
2023-03-27T01:48:10.969Z,1.90
2023-03-27T01:49:10.959Z,2.30
2023-03-27T01:50:10.928Z,1.90
2023-03-27T01:51:11.008Z,2.20
2023-03-27T01:52:10.965Z,1.90
2023-03-27T01:53:10.926Z,1.90
2023-03-27T01:54:10.899Z,1.90
2023-03-27T01:55:10.914Z,1.80
2023-03-27T01:56:10.920Z,1.60
2023-03-27T01:57:10.937Z,1.60
2023-03-27T01:58:10.861Z,1.70
2023-03-27T01:59:10.920Z,2.20
2023-03-27T02:00:18.410Z,1.70
2023-03-27T02:01:12.001Z,2.30
2023-03-27T02:02:10.864Z,2.20
2023-03-27T02:03:10.913Z,2.00
2023-03-27T02:04:10.883Z,2.20
2023-03-27T02:05:10.847Z,2.10
2023-03-27T02:06:10.789Z,1.80
2023-03-27T02:07:10.810Z,2.00
2023-03-27T02:08:10.740Z,2.10
2023-03-27T02:09:10.752Z,1.90
2023-03-27T02:10:10.778Z,2.30
2023-03-27T02:11:10.809Z,2.00
2023-03-27T02:12:10.782Z,2.10
2023-03-27T02:13:10.718Z,1.70
2023-03-27T02:14:10.700Z,1.60
2023-03-27T02:15:23.558Z,1.70
2023-03-27T02:16:11.691Z,1.80
2023-03-27T02:17:10.690Z,2.60
2023-03-27T02:18:11.557Z,2.30
2023-03-27T02:19:10.701Z,1.90
2023-03-27T02:20:10.672Z,1.60
2023-03-27T02:21:10.667Z,2.00
2023-03-27T02:22:10.651Z,2.20
2023-03-27T02:23:10.607Z,2.00
2023-03-27T02:24:10.612Z,2.40
2023-03-27T02:25:10.633Z,1.50
2023-03-27T02:26:10.585Z,2.20
2023-03-27T02:27:10.599Z,1.80
2023-03-27T02:28:10.590Z,2.00
2023-03-27T02:29:10.580Z,1.50
2023-03-27T02:30:10.551Z,2.20
2023-03-27T02:31:33.141Z,1.60
2023-03-27T02:32:11.634Z,2.10
2023-03-27T02:33:10.540Z,1.80
2023-03-27T02:34:10.534Z,2.10
2023-03-27T02:35:10.568Z,2.00
2023-03-27T02:36:11.377Z,2.40
2023-03-27T02:37:11.489Z,2.00
2023-03-27T02:38:10.498Z,1.70
2023-03-27T02:39:10.462Z,2.10
2023-03-27T02:40:10.443Z,2.20
2023-03-27T02:41:10.460Z,1.80
2023-03-27T02:42:10.470Z,1.80
2023-03-27T02:43:10.487Z,2.20
2023-03-27T02:44:10.423Z,2.00
2023-03-27T02:45:10.401Z,1.90
2023-03-27T02:46:10.425Z,1.90
2023-03-27T02:47:10.412Z,1.60
2023-03-27T02:48:10.406Z,2.00
2023-03-27T02:49:10.379Z,2.00
2023-03-27T02:50:10.387Z,1.40
2023-03-27T02:51:10.357Z,1.50
2023-03-27T02:52:10.356Z,1.90
2023-03-27T02:53:10.363Z,2.00
2023-03-27T02:54:10.336Z,1.60
2023-03-27T02:55:10.310Z,2.10
2023-03-27T02:56:10.300Z,2.20
2023-03-27T02:57:10.402Z,1.70
2023-03-27T02:58:10.282Z,2.00
2023-03-27T02:59:10.366Z,2.00
2023-03-27T03:00:10.323Z,1.80
2023-03-27T03:01:10.269Z,1.90
2023-03-27T03:02:10.297Z,1.80
2023-03-27T03:03:10.397Z,1.90
2023-03-27T03:04:10.319Z,2.00
2023-03-27T03:05:10.239Z,1.90
2023-03-27T03:06:10.934Z,2.10
2023-03-27T03:07:10.222Z,2.30
2023-03-27T03:08:10.331Z,1.80
2023-03-27T03:09:10.194Z,1.90
2023-03-27T03:10:10.193Z,2.20
2023-03-27T03:11:11.062Z,2.80
2023-03-27T03:12:10.205Z,1.40
2023-03-27T03:13:10.138Z,2.40
2023-03-27T03:14:10.138Z,1.70
2023-03-27T03:15:10.145Z,1.80
2023-03-27T03:16:10.231Z,1.80
2023-03-27T03:17:10.123Z,2.00
2023-03-27T03:18:10.121Z,1.90
2023-03-27T03:19:10.109Z,1.80
2023-03-27T03:20:10.079Z,1.80
2023-03-27T03:21:10.097Z,1.80
2023-03-27T03:22:10.079Z,2.20
2023-03-27T03:23:10.052Z,1.80
2023-03-27T03:24:10.046Z,1.80
2023-03-27T03:25:10.112Z,1.80
2023-03-27T03:26:09.995Z,2.20
2023-03-27T03:27:10.054Z,2.10
2023-03-27T03:28:10.018Z,1.70
2023-03-27T03:29:11.906Z,2.10
2023-03-27T03:30:09.974Z,2.10
2023-03-27T03:31:10.025Z,2.20
2023-03-27T03:32:09.972Z,1.90
2023-03-27T03:33:09.950Z,2.10
2023-03-27T03:34:09.975Z,1.70
2023-03-27T03:35:10.007Z,1.70
2023-03-27T03:36:09.987Z,1.70
2023-03-27T03:37:09.950Z,2.30
2023-03-27T03:38:09.901Z,2.10
2023-03-27T03:39:09.929Z,2.00
2023-03-27T03:40:09.899Z,1.50
2023-03-27T03:41:09.926Z,1.70
2023-03-27T03:42:09.873Z,1.80
2023-03-27T03:43:10.823Z,1.70
2023-03-27T03:44:09.846Z,1.60
2023-03-27T03:45:09.883Z,1.50
2023-03-27T03:46:09.860Z,1.80
2023-03-27T03:47:09.833Z,1.80
2023-03-27T03:48:09.945Z,1.60
2023-03-27T03:49:09.807Z,1.70
2023-03-27T03:50:09.810Z,1.70
2023-03-27T03:51:09.782Z,1.70
2023-03-27T03:52:09.828Z,1.60
2023-03-27T03:53:09.766Z,1.70
2023-03-27T03:54:09.744Z,1.40
2023-03-27T03:55:10.528Z,2.00
2023-03-27T03:56:09.757Z,1.70
2023-03-27T03:57:09.837Z,1.70
2023-03-27T03:58:09.707Z,1.80
2023-03-27T03:59:09.736Z,1.70
2023-03-27T04:00:09.712Z,1.90
2023-03-27T04:01:09.678Z,1.80
2023-03-27T04:02:09.729Z,1.60
2023-03-27T04:03:09.746Z,1.50
2023-03-27T04:04:09.666Z,1.40
2023-03-27T04:05:10.100Z,1.70
2023-03-27T04:06:09.654Z,2.00
2023-03-27T04:07:09.638Z,1.30
2023-03-27T04:08:10.691Z,1.50
2023-03-27T04:09:09.655Z,1.50
2023-03-27T04:10:09.629Z,1.60
2023-03-27T04:11:09.581Z,1.60
2023-03-27T04:12:09.632Z,1.80
2023-03-27T04:13:09.598Z,1.60
2023-03-27T04:14:09.562Z,1.70
2023-03-27T04:15:09.547Z,1.50
2023-03-27T04:16:09.623Z,1.60
2023-03-27T04:17:09.545Z,1.50
2023-03-27T04:18:09.566Z,1.40
2023-03-27T04:19:09.507Z,1.40
2023-03-27T04:20:09.555Z,2.00
2023-03-27T04:21:09.500Z,1.80
2023-03-27T04:22:09.521Z,1.50
2023-03-27T04:23:09.457Z,1.50
2023-03-27T04:24:09.462Z,1.70
2023-03-27T04:25:09.573Z,1.50
2023-03-27T04:26:09.460Z,1.60
2023-03-27T04:27:10.370Z,1.60
2023-03-27T04:28:09.437Z,1.50
2023-03-27T04:29:09.583Z,2.00
2023-03-27T04:30:09.419Z,1.80
2023-03-27T04:31:09.442Z,1.70
2023-03-27T04:32:10.089Z,1.80
2023-03-27T04:33:09.428Z,1.80
2023-03-27T04:34:09.369Z,1.80
2023-03-27T04:35:09.395Z,2.00
2023-03-27T04:36:09.365Z,1.60
2023-03-27T04:37:09.340Z,2.20
2023-03-27T04:38:09.360Z,1.80
2023-03-27T04:39:09.323Z,1.90
2023-03-27T04:40:09.316Z,1.80
2023-03-27T04:41:09.336Z,2.10
2023-03-27T04:42:09.339Z,2.20
2023-03-27T04:43:09.279Z,1.80
2023-03-27T04:44:09.274Z,2.40
2023-03-27T04:45:09.280Z,1.80
2023-03-27T04:46:10.284Z,1.80
2023-03-27T04:47:09.283Z,2.20
2023-03-27T04:48:09.300Z,2.30
2023-03-27T04:49:09.274Z,1.80
2023-03-27T04:50:09.232Z,1.60
2023-03-27T04:51:09.270Z,2.60
2023-03-27T04:52:09.280Z,1.80
2023-03-27T04:53:09.179Z,2.00
2023-03-27T04:54:09.196Z,1.90
2023-03-27T04:55:09.197Z,2.20
2023-03-27T04:56:09.187Z,1.80
2023-03-27T04:57:09.291Z,2.00
2023-03-27T04:58:09.160Z,1.90
2023-03-27T04:59:10.155Z,1.90
2023-03-27T05:00:09.135Z,2.20
2023-03-27T05:01:09.191Z,1.90
2023-03-27T05:02:09.164Z,2.20
2023-03-27T05:03:09.283Z,2.90
2023-03-27T05:04:09.188Z,1.90
2023-03-27T05:05:09.106Z,1.80
2023-03-27T05:06:09.117Z,1.90
2023-03-27T05:07:09.081Z,1.60
2023-03-27T05:08:09.294Z,1.70
2023-03-27T05:09:09.055Z,1.90
2023-03-27T05:10:09.099Z,2.20
2023-03-27T05:11:09.020Z,2.40
2023-03-27T05:12:08.999Z,1.70
2023-03-27T05:13:09.008Z,2.00
2023-03-27T05:14:09.001Z,2.30
2023-03-27T05:15:08.968Z,1.80
2023-03-27T05:16:08.986Z,2.10
2023-03-27T05:17:08.984Z,2.10
2023-03-27T05:18:09.353Z,2.00
2023-03-27T05:19:08.948Z,1.80
2023-03-27T05:20:08.958Z,2.50
2023-03-27T05:21:08.929Z,2.40
2023-03-27T05:22:08.918Z,2.00
2023-03-27T05:23:09.013Z,2.00
2023-03-27T05:24:08.929Z,1.80
2023-03-27T05:25:08.910Z,3.00
2023-03-27T05:26:08.948Z,2.60
2023-03-27T05:27:08.892Z,2.20
2023-03-27T05:28:08.879Z,1.70
2023-03-27T05:29:08.845Z,2.40
2023-03-27T05:30:08.831Z,2.30
2023-03-27T05:31:08.906Z,2.10
2023-03-27T05:32:08.890Z,2.10
2023-03-27T05:33:08.855Z,2.40
2023-03-27T05:34:08.860Z,2.00
2023-03-27T05:35:08.803Z,2.10
2023-03-27T05:36:08.766Z,2.20
2023-03-27T05:37:08.785Z,2.30
2023-03-27T05:38:08.810Z,2.30
2023-03-27T05:39:08.748Z,2.50
2023-03-27T05:40:08.724Z,2.30
2023-03-27T05:41:08.767Z,2.30
2023-03-27T05:42:08.739Z,2.10
2023-03-27T05:43:08.787Z,2.10
2023-03-27T05:44:08.749Z,2.00
2023-03-27T05:45:09.743Z,2.10
2023-03-27T05:46:08.739Z,1.80
2023-03-27T05:47:08.670Z,2.00
2023-03-27T05:48:08.737Z,2.00
2023-03-27T05:49:08.640Z,2.30
2023-03-27T05:50:08.698Z,2.10
2023-03-27T05:51:08.649Z,1.90
2023-03-27T05:52:08.610Z,2.10
2023-03-27T05:53:08.654Z,2.20
2023-03-27T05:54:08.616Z,2.90
2023-03-27T05:55:09.529Z,2.20
2023-03-27T05:56:08.636Z,1.90
2023-03-27T05:57:08.635Z,2.30
2023-03-27T05:58:08.595Z,2.30
2023-03-27T05:59:08.569Z,2.30
2023-03-27T06:00:08.577Z,2.10
2023-03-27T06:01:08.533Z,2.00
2023-03-27T06:02:08.558Z,2.70
2023-03-27T06:03:08.626Z,2.60
2023-03-27T06:04:08.524Z,2.00
2023-03-27T06:05:08.499Z,2.10
2023-03-27T06:06:08.528Z,2.00
2023-03-27T06:07:08.500Z,2.00
2023-03-27T06:08:08.492Z,2.50
2023-03-27T06:09:08.537Z,2.40
2023-03-27T06:10:13.523Z,2.10
2023-03-27T06:11:09.486Z,2.00
2023-03-27T06:12:08.476Z,2.30
2023-03-27T06:13:08.448Z,2.00
2023-03-27T06:14:08.418Z,3.10
2023-03-27T06:15:08.422Z,2.60
2023-03-27T06:16:08.458Z,2.40
2023-03-27T06:17:08.410Z,2.30
2023-03-27T06:18:08.474Z,2.40
2023-03-27T06:32:19.998Z,2.40
2023-03-27T06:33:19.961Z,2.10
2023-03-27T06:34:19.947Z,2.40
2023-03-27T06:35:19.986Z,2.50
2023-03-27T06:36:21.027Z,2.70
2023-03-27T06:37:20.965Z,3.00
2023-03-27T06:38:20.997Z,2.60
2023-03-27T06:39:20.982Z,2.90
2023-03-27T06:40:20.926Z,2.80
2023-03-27T06:41:20.955Z,2.30
2023-03-27T06:42:20.920Z,2.70
2023-03-27T06:43:20.940Z,2.40
2023-03-27T06:44:20.929Z,3.10
2023-03-27T06:45:20.890Z,2.70
2023-03-27T06:46:20.892Z,3.30
2023-03-27T06:47:20.980Z,2.90
2023-03-27T06:48:22.324Z,3.10
2023-03-27T06:49:21.858Z,3.00
2023-03-27T06:50:20.827Z,2.60
2023-03-27T06:51:20.851Z,2.70
2023-03-27T06:52:20.818Z,2.90
2023-03-27T06:53:27.271Z,3.20
2023-03-27T06:54:22.782Z,2.40
2023-03-27T06:55:20.834Z,2.70
2023-03-27T06:56:20.808Z,2.70
2023-03-27T06:57:20.759Z,2.60
2023-03-27T06:58:20.904Z,2.60
2023-03-27T06:59:20.742Z,2.90
2023-03-27T07:00:20.735Z,3.20
2023-03-27T07:01:20.764Z,3.40
2023-03-27T07:02:20.731Z,3.70
2023-03-27T07:03:20.777Z,3.40
2023-03-27T07:04:20.691Z,3.20
2023-03-27T07:05:20.732Z,3.20
2023-03-27T07:06:20.709Z,3.50
2023-03-27T07:07:20.678Z,2.80
2023-03-27T07:08:24.834Z,3.30
2023-03-27T07:09:21.696Z,3.20
2023-03-27T07:10:20.636Z,3.50
2023-03-27T07:11:20.680Z,3.10
2023-03-27T07:12:20.620Z,3.50
2023-03-27T07:13:20.696Z,3.70
2023-03-27T07:14:20.582Z,3.40
2023-03-27T07:15:20.557Z,4.00
2023-03-27T07:16:20.656Z,3.50
2023-03-27T07:17:20.568Z,3.70
2023-03-27T07:18:21.573Z,3.50
2023-03-27T07:19:20.516Z,4.40
2023-03-27T07:20:20.538Z,3.70
2023-03-27T07:21:20.512Z,3.80
2023-03-27T07:22:20.679Z,3.50
2023-03-27T07:23:20.533Z,3.60
2023-03-27T07:24:20.482Z,4.10
2023-03-27T07:25:21.072Z,3.10
2023-03-27T07:26:20.573Z,3.20
2023-03-27T07:27:20.461Z,3.00
2023-03-27T07:28:20.468Z,3.20
2023-03-27T07:29:20.420Z,3.40
2023-03-27T07:30:20.486Z,3.20
2023-03-27T07:31:35.033Z,3.30
2023-03-27T07:32:36.220Z,4.00
2023-03-27T07:33:22.504Z,3.60
2023-03-27T07:34:20.474Z,3.00
2023-03-27T07:35:20.487Z,3.40
2023-03-27T07:36:20.388Z,3.40
2023-03-27T07:37:20.350Z,3.00
2023-03-27T07:38:20.414Z,2.90
2023-03-27T07:39:20.479Z,3.00
2023-03-27T07:40:29.368Z,2.60
2023-03-27T07:41:22.375Z,3.10
2023-03-27T07:42:20.365Z,2.60
2023-03-27T07:43:20.348Z,2.90
2023-03-27T07:44:20.326Z,3.10
2023-03-27T07:45:20.338Z,3.00
2023-03-27T07:46:20.382Z,2.60
2023-03-27T07:47:20.309Z,2.60
2023-03-27T07:48:20.285Z,2.80
2023-03-27T07:49:20.336Z,2.30
2023-03-27T07:50:21.233Z,2.60
2023-03-27T07:51:20.295Z,3.30
2023-03-27T07:52:20.236Z,2.60
2023-03-27T07:53:33.655Z,2.30
2023-03-27T07:54:21.199Z,2.50
2023-03-27T07:55:20.289Z,2.70
2023-03-27T07:56:20.182Z,2.00
2023-03-27T07:57:20.419Z,2.40
2023-03-27T07:58:20.241Z,2.20
2023-03-27T07:59:20.179Z,2.30
2023-03-27T08:00:20.180Z,2.00
2023-03-27T08:01:20.147Z,1.90
2023-03-27T08:02:20.115Z,2.60
2023-03-27T08:03:20.250Z,1.70
2023-03-27T08:04:20.261Z,2.40
2023-03-27T08:05:20.114Z,2.40
2023-03-27T08:06:20.093Z,2.40
2023-03-27T08:07:20.079Z,2.20
2023-03-27T08:08:20.133Z,2.50
2023-03-27T08:09:20.169Z,2.20
2023-03-27T08:10:20.097Z,2.70
2023-03-27T08:11:30.258Z,1.90
2023-03-27T08:12:22.059Z,2.10
2023-03-27T08:13:20.102Z,2.00
2023-03-27T08:14:20.072Z,2.60
2023-03-27T08:15:19.964Z,2.40
2023-03-27T08:16:20.023Z,2.00
2023-03-27T08:17:21.968Z,2.40
2023-03-27T08:18:21.094Z,1.60
2023-03-27T08:19:19.941Z,2.00
2023-03-27T08:20:19.964Z,1.80
2023-03-27T08:21:19.916Z,2.30
2023-03-27T08:22:19.904Z,2.00
2023-03-27T08:23:19.964Z,2.10
2023-03-27T08:24:19.938Z,2.20
2023-03-27T08:25:20.929Z,2.60
2023-03-27T08:26:19.865Z,1.80
2023-03-27T08:27:20.047Z,1.90
2023-03-27T08:28:19.867Z,2.00
2023-03-27T08:29:19.888Z,2.10
2023-03-27T08:30:19.854Z,2.20
2023-03-27T08:31:19.991Z,1.90
2023-03-27T08:32:19.850Z,2.00
2023-03-27T08:33:19.810Z,2.20
2023-03-27T08:34:19.847Z,2.30
2023-03-27T08:35:19.854Z,1.60
2023-03-27T08:36:19.896Z,2.00
2023-03-27T08:37:20.028Z,1.80
2023-03-27T08:38:26.037Z,2.20
2023-03-27T08:39:21.776Z,2.40
2023-03-27T08:40:19.765Z,1.80
2023-03-27T08:41:19.795Z,1.80
2023-03-27T08:42:19.739Z,1.50
2023-03-27T08:43:19.701Z,1.80
2023-03-27T08:44:19.711Z,2.00
2023-03-27T08:45:19.693Z,2.00
2023-03-27T08:46:19.787Z,1.70
2023-03-27T08:47:19.685Z,2.00
2023-03-27T08:48:21.624Z,2.20
2023-03-27T08:49:20.677Z,2.40
2023-03-27T08:50:19.705Z,2.40
2023-03-27T08:51:19.743Z,2.00
2023-03-27T08:52:19.656Z,1.80
2023-03-27T08:53:20.585Z,1.60
2023-03-27T08:54:19.612Z,1.70
2023-03-27T08:55:19.658Z,2.10
2023-03-27T08:56:19.593Z,1.50
2023-03-27T08:57:19.641Z,2.20
2023-03-27T08:58:19.553Z,1.80
2023-03-27T08:59:19.563Z,1.80
2023-03-27T09:00:19.578Z,2.00
2023-03-27T09:01:19.575Z,2.00
2023-03-27T09:02:19.548Z,1.80
2023-03-27T09:03:19.701Z,1.50
2023-03-27T09:04:19.620Z,1.80
2023-03-27T09:05:19.557Z,1.60
2023-03-27T09:06:19.470Z,1.60
2023-03-27T09:07:19.509Z,1.60
2023-03-27T09:08:19.453Z,1.80
2023-03-27T09:09:20.032Z,1.60
2023-03-27T09:10:19.484Z,1.90
2023-03-27T09:11:21.591Z,1.40
2023-03-27T09:12:20.450Z,2.00
2023-03-27T09:13:19.427Z,1.90
2023-03-27T09:14:19.390Z,2.00
2023-03-27T09:15:20.393Z,1.70
2023-03-27T09:16:20.074Z,1.80
2023-03-27T09:19:35.547Z,1.60
2023-03-27T09:20:35.447Z,1.50
2023-03-27T09:21:35.298Z,1.50
2023-03-27T09:22:37.046Z,1.40
2023-03-27T09:23:36.977Z,1.60
2023-03-27T09:24:36.379Z,1.40
2023-03-27T09:25:36.381Z,1.60
2023-03-27T09:26:36.343Z,1.80
2023-03-27T09:27:36.475Z,1.60
2023-03-27T09:28:36.429Z,1.70
2023-03-27T09:29:36.314Z,1.80
2023-03-27T09:30:36.305Z,1.70
2023-03-27T09:31:36.443Z,1.30
2023-03-27T09:32:36.391Z,1.30
2023-03-27T09:33:36.869Z,1.50
2023-03-27T09:34:36.323Z,1.70
2023-03-27T09:35:42.655Z,1.30
2023-03-27T09:36:37.141Z,1.50
2023-03-27T09:37:37.163Z,1.60
2023-03-27T09:38:38.016Z,1.80
2023-03-27T09:39:39.817Z,1.40
2023-03-27T09:40:37.517Z,1.70
2023-03-27T09:41:36.638Z,1.50
2023-03-27T09:42:37.603Z,1.70
2023-03-27T09:43:36.301Z,1.70
2023-03-27T09:44:36.189Z,1.50
2023-03-27T09:45:36.248Z,1.70
2023-03-27T09:46:36.217Z,1.50
2023-03-27T09:47:36.211Z,1.70
2023-03-27T09:48:36.186Z,1.60
2023-03-27T09:49:36.240Z,1.70
2023-03-27T09:50:36.317Z,1.70
2023-03-27T09:51:36.389Z,1.80
2023-03-27T09:52:36.085Z,1.60
2023-03-27T09:53:36.138Z,1.50
2023-03-27T09:54:36.594Z,1.30
2023-03-27T09:55:36.064Z,1.70
2023-03-27T09:56:36.095Z,1.50
2023-03-27T09:57:36.023Z,1.60
2023-03-27T09:58:36.327Z,1.80
2023-03-27T09:59:36.214Z,1.70
2023-03-27T10:00:36.405Z,1.60
2023-03-27T10:01:36.158Z,1.60
2023-03-27T10:02:36.410Z,1.40
2023-03-27T10:03:36.947Z,1.80
2023-03-27T10:04:36.071Z,2.00
2023-03-27T10:05:36.078Z,1.60
2023-03-27T10:06:36.032Z,1.60
2023-03-27T10:07:35.966Z,1.60
2023-03-27T10:08:36.045Z,1.50
2023-03-27T10:09:36.116Z,2.10
2023-03-27T10:10:35.912Z,1.90
2023-03-27T10:11:35.914Z,1.90
2023-03-27T10:12:35.885Z,1.60
2023-03-27T10:13:35.922Z,1.50
2023-03-27T10:14:36.100Z,1.60
2023-03-27T10:15:36.029Z,1.80
2023-03-27T10:16:36.458Z,2.40
2023-03-27T10:17:37.663Z,2.20
2023-03-27T10:18:36.323Z,1.60
2023-03-27T10:19:35.854Z,1.90
2023-03-27T10:20:36.018Z,1.90
2023-03-27T10:21:37.226Z,1.80
2023-03-27T10:22:36.055Z,1.80
2023-03-27T10:23:35.819Z,2.00
2023-03-27T10:24:35.902Z,1.50
2023-03-27T10:25:36.967Z,1.80
2023-03-27T10:26:35.977Z,1.20
2023-03-27T10:27:35.867Z,1.50
2023-03-27T10:28:36.044Z,1.90
2023-03-27T10:29:37.548Z,1.50
2023-03-27T10:30:35.759Z,1.60
2023-03-27T10:31:35.798Z,1.70
2023-03-27T10:32:35.885Z,1.60
2023-03-27T10:33:35.722Z,1.50
2023-03-27T10:34:35.826Z,1.30
2023-03-27T10:35:36.783Z,1.40
2023-03-27T10:36:35.692Z,1.40
2023-03-27T10:37:35.690Z,1.40
2023-03-27T10:38:35.671Z,1.50
2023-03-27T10:39:35.852Z,1.40
2023-03-27T10:40:35.640Z,1.40
2023-03-27T10:41:35.839Z,1.50
2023-03-27T10:42:35.627Z,2.10
2023-03-27T10:43:35.887Z,1.80
2023-03-27T10:44:35.753Z,1.30
2023-03-27T10:45:35.654Z,1.30
2023-03-27T10:46:35.662Z,1.00
2023-03-27T10:47:35.810Z,1.60
2023-03-27T10:48:35.515Z,1.30
2023-03-27T10:49:35.573Z,1.40
2023-03-27T10:50:35.570Z,1.80
2023-03-27T10:51:45.630Z,1.20
2023-03-27T10:52:37.555Z,1.40
2023-03-27T10:53:36.647Z,1.80
2023-03-27T10:54:36.679Z,1.50
2023-03-27T10:55:37.975Z,1.60
2023-03-27T10:56:35.531Z,1.60
2023-03-27T10:57:35.515Z,1.50
2023-03-27T10:58:36.328Z,1.80
2023-03-27T11:00:37.485Z,1.60
2023-03-27T11:01:36.046Z,1.80
2023-03-27T11:02:35.541Z,1.80
2023-03-27T11:03:35.472Z,1.80
2023-03-27T11:03:47.633Z,1.70
2023-03-27T11:04:35.490Z,1.70
2023-03-27T11:05:35.445Z,1.80
2023-03-27T11:06:35.425Z,2.00
2023-03-27T11:07:35.734Z,1.80
2023-03-27T11:08:37.234Z,1.70
2023-03-27T11:09:35.436Z,1.80
2023-03-27T11:10:35.768Z,1.80
2023-03-27T11:11:35.480Z,1.60
2023-03-27T11:12:35.338Z,1.90
2023-03-27T11:13:35.362Z,1.90
2023-03-27T11:14:35.363Z,1.60
2023-03-27T11:15:35.318Z,1.40
2023-03-27T11:16:35.506Z,2.00
2023-03-27T11:17:35.316Z,1.60
2023-03-27T11:18:35.289Z,1.80
2023-03-27T11:19:35.522Z,1.80
2023-03-27T11:20:35.995Z,1.50
2023-03-27T11:21:35.233Z,1.40
2023-03-27T11:22:35.236Z,1.70
2023-03-27T11:23:35.254Z,1.40
2023-03-27T11:24:35.187Z,1.50
2023-03-27T11:25:35.598Z,1.30
2023-03-27T11:26:35.165Z,1.50
2023-03-27T11:27:35.305Z,1.70
2023-03-27T11:28:35.167Z,1.40
2023-03-27T11:29:35.231Z,1.20
2023-03-27T11:30:35.838Z,1.00
2023-03-27T11:31:35.186Z,1.40
2023-03-27T11:32:35.171Z,1.40
2023-03-27T11:33:35.110Z,1.10
2023-03-27T11:34:35.200Z,1.30
2023-03-27T11:35:35.475Z,1.30
2023-03-27T11:36:35.113Z,1.40
2023-03-27T11:37:35.038Z,1.10
2023-03-27T11:38:35.106Z,0.90
2023-03-27T11:39:35.057Z,1.10
2023-03-27T11:40:35.106Z,1.40
2023-03-27T11:41:35.100Z,1.30
2023-03-27T11:42:35.042Z,1.30
2023-03-27T11:43:35.035Z,1.20
2023-03-27T11:44:35.012Z,1.50
2023-03-27T11:45:34.994Z,1.50
2023-03-27T11:46:35.729Z,1.10
2023-03-27T11:47:35.047Z,1.20
2023-03-27T11:48:34.976Z,0.90
2023-03-27T11:49:34.953Z,1.10
2023-03-27T11:50:35.082Z,1.00
2023-03-27T11:51:34.898Z,0.90
2023-03-27T11:52:34.964Z,1.20
2023-03-27T11:53:35.612Z,1.00
2023-03-27T11:54:35.027Z,1.10
2023-03-27T11:55:34.930Z,1.10
2023-03-27T11:56:35.014Z,1.00
2023-03-27T11:57:34.904Z,0.90
2023-03-27T11:58:35.293Z,1.10
2023-03-27T11:59:34.889Z,1.10
2023-03-27T12:00:35.055Z,0.80
2023-03-27T12:01:34.870Z,1.10
2023-03-27T12:02:34.992Z,0.90
2023-03-27T12:03:34.881Z,0.80
2023-03-27T12:04:34.868Z,0.70
2023-03-27T12:05:34.890Z,1.00
2023-03-27T12:06:34.813Z,0.80
2023-03-27T12:07:37.166Z,1.20
2023-03-27T12:08:37.494Z,1.00
2023-03-27T12:09:34.820Z,1.40
2023-03-27T12:10:34.806Z,1.00
2023-03-27T12:11:34.785Z,0.90
2023-03-27T12:12:35.821Z,0.80
2023-03-27T12:13:41.181Z,0.80
2023-03-27T12:14:40.816Z,0.90
2023-03-27T12:15:35.716Z,1.00
2023-03-27T12:16:34.901Z,1.20
2023-03-27T12:17:34.822Z,0.70
2023-03-27T12:18:36.435Z,1.00
2023-03-27T12:19:38.945Z,0.90
2023-03-27T12:20:34.788Z,1.20
2023-03-27T12:21:34.648Z,1.00
2023-03-27T12:22:34.735Z,1.00
2023-03-27T12:23:34.593Z,1.20
2023-03-27T12:24:34.734Z,1.20
2023-03-27T12:25:36.038Z,1.10
2023-03-27T12:26:35.602Z,0.90
2023-03-27T12:27:34.673Z,0.80
2023-03-27T12:28:34.563Z,1.00
2023-03-27T12:29:34.728Z,1.20
2023-03-27T12:30:34.563Z,1.20
2023-03-27T12:31:34.561Z,1.00
2023-03-27T12:32:34.581Z,1.20
2023-03-27T12:33:34.599Z,1.30
2023-03-27T12:34:34.526Z,1.30
2023-03-27T12:35:34.690Z,1.30
2023-03-27T12:36:34.482Z,1.40
2023-03-27T12:37:35.202Z,1.30
2023-03-27T12:38:35.064Z,1.00
2023-03-27T12:39:34.520Z,1.10
2023-03-27T12:40:34.449Z,1.20
2023-03-27T12:41:34.483Z,1.30
2023-03-27T12:42:34.445Z,1.10
2023-03-27T12:43:35.499Z,1.00
2023-03-27T12:44:34.507Z,1.00
2023-03-27T12:45:38.724Z,0.90
2023-03-27T12:46:35.536Z,1.00
2023-03-27T12:47:34.626Z,1.20
2023-03-27T12:48:34.356Z,1.50
2023-03-27T12:49:46.412Z,1.00
2023-03-27T12:50:36.353Z,0.90
2023-03-27T12:51:34.431Z,1.30
2023-03-27T12:52:34.333Z,1.00
2023-03-27T12:53:34.323Z,1.40
2023-03-27T12:54:34.384Z,1.00
2023-03-27T12:55:34.305Z,1.10
2023-03-27T12:56:34.328Z,0.90
2023-03-27T12:57:34.367Z,1.00
2023-03-27T12:58:34.284Z,1.00
2023-03-27T12:59:34.284Z,0.90
2023-03-27T13:00:34.303Z,1.00
2023-03-27T13:01:42.023Z,0.80
2023-03-27T13:02:36.361Z,0.90
2023-03-27T13:03:34.426Z,0.80
2023-03-27T13:04:34.236Z,0.70
2023-03-27T13:05:34.201Z,0.80
2023-03-27T13:06:34.262Z,0.80
2023-03-27T13:07:34.194Z,0.90
2023-03-27T13:08:34.232Z,0.90
2023-03-27T13:09:34.244Z,1.00
2023-03-27T13:10:34.199Z,0.80
2023-03-27T13:11:34.230Z,0.90
2023-03-27T13:12:34.234Z,1.00
2023-03-27T13:13:34.220Z,0.70
2023-03-27T13:14:34.126Z,1.00
2023-03-27T13:15:34.572Z,1.10
2023-03-27T13:16:34.199Z,1.20
2023-03-27T13:17:34.129Z,1.00
2023-03-27T13:18:34.099Z,0.90
2023-03-27T13:19:34.101Z,1.00
2023-03-27T13:20:34.079Z,0.90
2023-03-27T13:21:35.998Z,1.00
2023-03-27T13:22:37.012Z,1.00
2023-03-27T13:23:35.018Z,0.70
2023-03-27T13:24:34.019Z,1.10
2023-03-27T13:25:34.042Z,0.90
2023-03-27T13:26:34.023Z,0.90
2023-03-27T13:27:34.081Z,0.90
2023-03-27T13:28:33.995Z,0.80
2023-03-27T13:29:33.950Z,0.80
2023-03-27T13:30:34.120Z,0.90
2023-03-27T13:31:33.997Z,0.80
2023-03-27T13:32:34.004Z,0.70
2023-03-27T13:33:33.958Z,0.80